Map

Track Data

SID SEASON NUMBER BASIN SUBBASIN NAME ISO_TIME NATURE LAT LON WMO_WIND WMO_PRES WMO_AGENCY TRACK_TYPE DIST2LAND LANDFALL IFLAG USA_AGENCY USA_ATCF_ID USA_LAT USA_LON USA_RECORD USA_STATUS USA_WIND USA_PRES USA_SSHS USA_R34_NE USA_R34_SE USA_R34_SW USA_R34_NW USA_R50_NE USA_R50_SE USA_R50_SW USA_R50_NW USA_R64_NE USA_R64_SE USA_R64_SW USA_R64_NW USA_POCI USA_ROCI USA_RMW USA_EYE TOKYO_LAT TOKYO_LON TOKYO_GRADE TOKYO_WIND TOKYO_PRES TOKYO_R50_DIR TOKYO_R50_LONG TOKYO_R50_SHORT TOKYO_R30_DIR TOKYO_R30_LONG TOKYO_R30_SHORT TOKYO_LAND CMA_LAT CMA_LON CMA_CAT CMA_WIND CMA_PRES HKO_LAT HKO_LON HKO_CAT HKO_WIND HKO_PRES NEWDELHI_LAT NEWDELHI_LON NEWDELHI_GRADE NEWDELHI_WIND NEWDELHI_PRES NEWDELHI_CI NEWDELHI_DP NEWDELHI_POCI REUNION_LAT REUNION_LON REUNION_TYPE REUNION_WIND REUNION_PRES REUNION_TNUM REUNION_CI REUNION_RMW REUNION_R34_NE REUNION_R34_SE REUNION_R34_SW REUNION_R34_NW REUNION_R50_NE REUNION_R50_SE REUNION_R50_SW REUNION_R50_NW REUNION_R64_NE REUNION_R64_SE REUNION_R64_SW REUNION_R64_NW BOM_LAT BOM_LON BOM_TYPE BOM_WIND BOM_PRES BOM_TNUM BOM_CI BOM_RMW BOM_R34_NE BOM_R34_SE BOM_R34_SW BOM_R34_NW BOM_R50_NE BOM_R50_SE BOM_R50_SW BOM_R50_NW BOM_R64_NE BOM_R64_SE BOM_R64_SW BOM_R64_NW BOM_ROCI BOM_POCI BOM_EYE BOM_POS_METHOD BOM_PRES_METHOD NADI_LAT NADI_LON NADI_CAT NADI_WIND NADI_PRES WELLINGTON_LAT WELLINGTON_LON WELLINGTON_WIND WELLINGTON_PRES DS824_LAT DS824_LON DS824_STAGE DS824_WIND DS824_PRES TD9636_LAT TD9636_LON TD9636_STAGE TD9636_WIND TD9636_PRES TD9635_LAT TD9635_LON TD9635_WIND TD9635_PRES TD9635_ROCI NEUMANN_LAT NEUMANN_LON NEUMANN_CLASS NEUMANN_WIND NEUMANN_PRES MLC_LAT MLC_LON MLC_CLASS MLC_WIND MLC_PRES USA_GUST BOM_GUST BOM_GUST_PER REUNION_GUST REUNION_GUST_PER USA_SEAHGT USA_SEARAD_NE USA_SEARAD_SE USA_SEARAD_SW USA_SEARAD_NW STORM_SPEED STORM_DIR
1970243N16257 1970 99 EP MM NORMA 1970-08-31 00:00:00 TS 16.4000 -103.300 25 hurdat_epa main 193 190 O________OO___ hurdat_epa EP141970 16.4000 -103.300 TD 25 -1 16.4000 -103.300 TC 25 16.4000 -103.300 1 11 286
1970243N16257 1970 99 EP MM NORMA 1970-08-31 03:00:00 TS 16.5489 -103.852 main 204 193 P________PP___ EP141970 16.5503 -103.860 TD 25 -1 16.5503 -103.860 TC 25 16.5430 -103.820 1 11 286
1970243N16257 1970 99 EP MM NORMA 1970-08-31 06:00:00 TS 16.6977 -104.388 25 hurdat_epa main 202 202 O________OP___ hurdat_epa EP141970 16.7000 -104.400 TD 25 -1 16.7000 -104.400 TC 25 16.6883 -104.342 1 10 287
1970243N16257 1970 99 EP MM NORMA 1970-08-31 09:00:00 TS 16.8477 -104.900 main 224 215 P________PP___ EP141970 16.8498 -104.908 TD 25 -1 16.8498 -104.908 TC 25 16.8394 -104.868 1 10 287
1970243N16257 1970 99 EP MM NORMA 1970-08-31 12:00:00 TS 17.0000 -105.400 25 hurdat_epa main 248 248 O________OO___ hurdat_epa EP141970 17.0000 -105.400 TD 25 -1 17.0000 -105.400 TC 25 17.0000 -105.400 2 10 287
1970243N16257 1970 99 EP MM NORMA 1970-08-31 15:00:00 TS 17.1483 -105.907 main 262 252 P________PP___ EP141970 17.1424 -105.900 TD 35 0 17.1424 -105.900 TC 35 17.1719 -105.936 2 10 288
1970243N16257 1970 99 EP MM NORMA 1970-08-31 18:00:00 TS 17.3100 -106.412 45 hurdat_epa main 271 269 O________OP___ hurdat_epa EP141970 17.3000 -106.400 TS 45 0 17.3000 -106.400 TC 45 17.3501 -106.460 2 10 290
1970243N16257 1970 99 EP MM NORMA 1970-08-31 21:00:00 TS 17.5057 -106.929 main 291 291 P________PP___ EP141970 17.5000 -106.922 TS 45 0 17.5000 -106.922 TC 45 17.5282 -106.954 2 10 292
1970243N16257 1970 99 EP MM NORMA 1970-09-01 00:00:00 TS 17.7000 -107.400 45 hurdat_epa main 314 314 O________OO___ hurdat_epa EP141970 17.7000 -107.400 TS 45 0 17.7000 -107.400 TC 45 17.7000 -107.400 2 9 293
1970243N16257 1970 99 EP MM NORMA 1970-09-01 03:00:00 TS 17.8580 -107.781 main 331 331 P________PP___ EP141970 17.8573 -107.780 TS 45 0 17.8573 -107.780 TC 45 17.8607 -107.784 2 7 294
1970243N16257 1970 99 EP MM NORMA 1970-09-01 06:00:00 TS 18.0029 -108.104 45 hurdat_epa main 350 350 O________OP___ hurdat_epa EP141970 18.0000 -108.100 TS 45 0 18.0000 -108.100 TC 45 18.0143 -108.118 2 7 297
1970243N16257 1970 99 EP MM NORMA 1970-09-01 09:00:00 TS 18.1581 -108.410 main 365 365 P________PP___ EP141970 18.1574 -108.408 TS 45 0 18.1574 -108.408 TC 45 18.1608 -108.418 2 6 298
1970243N16257 1970 99 EP MM NORMA 1970-09-01 12:00:00 TS 18.3000 -108.700 45 hurdat_epa main 386 386 O________OO___ hurdat_epa EP141970 18.3000 -108.700 TS 45 0 18.3000 -108.700 TC 45 18.3000 -108.700 2 6 293
1970243N16257 1970 99 EP MM NORMA 1970-09-01 15:00:00 TS 18.4015 -109.004 main 408 408 P________PP___ EP141970 18.4000 -109.008 TS 45 0 18.4000 -109.008 TC 45 18.4076 -108.990 2 6 290
1970243N16257 1970 99 EP MM NORMA 1970-09-01 18:00:00 TS 18.5024 -109.293 45 hurdat_epa main 432 432 O________OP___ hurdat_epa EP141970 18.5000 -109.300 TS 45 0 18.5000 -109.300 TC 45 18.5122 -109.266 2 6 294
1970243N16257 1970 99 EP MM NORMA 1970-09-01 21:00:00 TS 18.6291 -109.553 main 455 450 P________PP___ EP141970 18.6274 -109.558 TS 47 0 18.6274 -109.558 TC 47 18.6357 -109.534 2 6 302
1970243N16257 1970 99 EP MM NORMA 1970-09-02 00:00:00 TS 18.8000 -109.800 50 hurdat_epa main 458 436 O________OO___ hurdat_epa EP141970 18.8000 -109.800 TS 50 0 18.8000 -109.800 TC 50 18.8000 -109.800 2 6 311
1970243N16257 1970 99 EP MM NORMA 1970-09-02 03:00:00 TS 19.0283 -110.046 main 436 403 P________PP___ EP141970 19.0274 -110.043 TS 50 0 19.0274 -110.043 TC 50 19.0316 -110.059 2 7 316
1970243N16257 1970 99 EP MM NORMA 1970-09-02 06:00:00 TS 19.3009 -110.304 50 hurdat_epa main 403 374 O________OP___ hurdat_epa EP141970 19.3000 -110.300 TS 50 0 19.3000 -110.300 TC 50 19.3046 -110.320 2 8 318
1970243N16257 1970 99 EP MM NORMA 1970-09-02 09:00:00 TS 19.6000 -110.587 main 374 345 P________PP___ EP141970 19.5999 -110.585 TS 50 0 19.5999 -110.585 TC 50 19.6003 -110.597 2 8 317
1970243N16257 1970 99 EP MM NORMA 1970-09-02 12:00:00 TS 19.9000 -110.900 50 hurdat_epa main 348 333 O________OO___ hurdat_epa EP141970 19.9000 -110.900 TS 50 0 19.9000 -110.900 TC 50 19.9000 -110.900 2 8 312
1970243N16257 1970 99 EP MM NORMA 1970-09-02 15:00:00 TS 20.1558 -111.237 main 326 319 P________PP___ EP141970 20.1499 -111.235 TS 50 0 20.1499 -111.235 TC 50 20.1791 -111.246 2 8 308
1970243N16257 1970 99 EP MM NORMA 1970-09-02 18:00:00 TS 20.4115 -111.604 50 992 hurdat_epa main 324 314 O________OP___ hurdat_epa EP141970 20.4000 -111.600 TS 50 992 0 20.4000 -111.600 TC 50 992 20.4575 -111.620 2 9 308
1970243N16257 1970 99 EP MM NORMA 1970-09-02 21:00:00 TS 20.7064 -112.002 main 321 318 P________PP___ EP141970 20.7000 -112.000 TS 50 0 20.7000 -112.000 TC 50 20.7322 -112.009 2 10 308
1970243N16257 1970 99 EP MM NORMA 1970-09-03 00:00:00 TS 21.0000 -112.400 50 hurdat_epa main 326 326 O________OO___ hurdat_epa EP141970 21.0000 -112.400 TS 50 0 21.0000 -112.400 TC 50 21.0000 -112.400 2 9 308
1970243N16257 1970 99 EP MM NORMA 1970-09-03 03:00:00 TS 21.2606 -112.762 main 339 339 P________PP___ EP141970 21.2573 -112.750 TS 50 0 21.2573 -112.750 TC 50 21.2736 -112.807 2 8 307
1970243N16257 1970 99 EP MM NORMA 1970-09-03 06:00:00 TS 21.5076 -113.122 50 hurdat_epa main 355 348 O________OP___ hurdat_epa EP141970 21.5000 -113.100 TS 50 0 21.5000 -113.100 TC 50 21.5378 -113.210 2 9 305
1970243N16257 1970 99 EP MM NORMA 1970-09-03 09:00:00 TS 21.7687 -113.528 main 348 346 P________PP___ EP141970 21.7651 -113.515 TS 50 0 21.7651 -113.515 TC 50 21.7830 -113.582 2 9 304
1970243N16257 1970 99 EP MM NORMA 1970-09-03 12:00:00 TS 22.0000 -113.900 50 hurdat_epa main 352 349 O________OO___ hurdat_epa EP141970 22.0000 -113.900 TS 50 0 22.0000 -113.900 TC 50 22.0000 -113.900 2 7 303
1970243N16257 1970 99 EP MM NORMA 1970-09-03 15:00:00 TS 22.1684 -114.187 main 352 349 P________PP___ EP141970 22.1649 -114.195 TS 40 0 22.1649 -114.195 TC 40 22.1824 -114.153 2 5 304
1970243N16257 1970 99 EP MM NORMA 1970-09-03 18:00:00 TS 22.3074 -114.390 30 hurdat_epa main 356 346 O________OP___ hurdat_epa EP141970 22.3000 -114.400 TD 30 -1 22.3000 -114.400 TC 30 22.3370 -114.348 2 4 313
1970243N16257 1970 99 EP MM NORMA 1970-09-03 21:00:00 TS 22.4606 -114.523 main 346 346 P________PP___ EP141970 22.4574 -114.530 TD 37 0 22.4574 -114.530 TC 37 22.4732 -114.494 2 4 326
1970243N16257 1970 99 EP MM NORMA 1970-09-04 00:00:00 TS 22.6000 -114.600 45 hurdat_epa main 346 338 O________OO___ hurdat_epa EP141970 22.6000 -114.600 TS 45 0 22.6000 -114.600 TC 45 22.6000 -114.600 2 3 331
1970243N16257 1970 99 EP MM NORMA 1970-09-04 03:00:00 TS 22.7032 -114.663 main 346 338 P________PP___ EP141970 22.7000 -114.658 TS 42 0 22.7000 -114.658 TC 42 22.7158 -114.686 2 2 335
1970243N16257 1970 99 EP MM NORMA 1970-09-04 06:00:00 TS 22.8055 -114.708 40 hurdat_epa main 338 331 O________OP___ hurdat_epa EP141970 22.8000 -114.700 TS 40 0 22.8000 -114.700 TC 40 22.8274 -114.738 2 3 342
1970243N16257 1970 99 EP MM NORMA 1970-09-04 09:00:00 TS 22.9380 -114.754 main 339 325 P________PP___ EP141970 22.9350 -114.750 TS 40 0 22.9350 -114.750 TC 40 22.9502 -114.771 2 3 344
1970243N16257 1970 99 EP MM NORMA 1970-09-04 12:00:00 TS 23.1000 -114.800 40 hurdat_epa main 325 312 O________OO___ hurdat_epa EP141970 23.1000 -114.800 TS 40 0 23.1000 -114.800 TC 40 23.1000 -114.800 6 4 344
1970243N16257 1970 99 EP MM NORMA 1970-09-04 15:00:00 TS 23.2832 -114.856 main 321 309 P________PP___ EP141970 23.2850 -114.850 TS 32 -1 23.2850 -114.850 TC 32 23.2759 -114.882 6 4 346
1970243N16257 1970 99 EP MM NORMA 1970-09-04 18:00:00 TS 23.4965 -114.912 25 hurdat_epa main 309 304 O________OP___ hurdat_epa EP141970 23.5000 -114.900 TD 25 -1 23.5000 -114.900 TC 25 23.4825 -114.959 6 5 345
1970243N16257 1970 99 EP MM NORMA 1970-09-04 21:00:00 TS 23.7266 -114.979 main 309 297 P________PP___ EP141970 23.7275 -114.972 TD 27 -1 23.7275 -114.972 TC 27 23.7228 -115.007 6 5 351
1970243N16257 1970 99 EP MM NORMA 1970-09-05 00:00:00 TS 24.0000 -115.000 30 hurdat_epa main 297 278 O________OO___ hurdat_epa EP141970 24.0000 -115.000 TD 30 -1 24.0000 -115.000 TC 30 24.0000 -115.000 6 6 3
1970243N16257 1970 99 EP MM NORMA 1970-09-05 03:00:00 TS 24.3310 -114.934 main 278 253 P________PP___ EP141970 24.3350 -114.938 TD 30 -1 24.3350 -114.938 TC 30 24.3152 -114.921 6 7 15
1970243N16257 1970 99 EP MM NORMA 1970-09-05 06:00:00 TS 24.6937 -114.797 30 hurdat_epa main 253 214 O________OP___ hurdat_epa EP141970 24.7000 -114.800 TD 30 -1 24.7000 -114.800 TC 30 24.6603 -114.782 6 8 22
1970243N16257 1970 99 EP MM NORMA 1970-09-05 09:00:00 TS 25.0473 -114.614 main 214 165 P________PP___ EP141970 25.0500 -114.615 TD 27 -1 25.0500 -114.615 TC 27 25.0253 -114.601 6 8 27
1970243N16257 1970 99 EP MM NORMA 1970-09-05 12:00:00 TS 25.4000 -114.400 25 hurdat_epa main 165 126 O________OO___ hurdat_epa EP141970 25.4000 -114.400 TD 25 -1 25.4000 -114.400 TC 25 25.4000 -114.400 6 8 27
1970243N16257 1970 99 EP MM NORMA 1970-09-05 15:00:00 TS 25.7574 -114.207 main 116 77 P________P____ EP141970 25.7574 -114.207 TD 25 -1 25.7574 -114.207 TC 25 6 8 27
1970243N16257 1970 99 EP MM NORMA 1970-09-05 18:00:00 MX 26.1000 -114.000 25 hurdat_epa main 77 38 O________O____ hurdat_epa EP141970 26.1000 -114.000 TD 25 -1 26.1000 -114.000 25 6 8 32
1970243N16257 1970 99 EP MM NORMA 1970-09-05 21:00:00 MX 26.4101 -113.760 main 38 9 P________P____ EP141970 26.4101 -113.760 TD 25 -1 26.4101 -113.760 25 6 8 37
1970243N16257 1970 99 EP MM NORMA 1970-09-06 00:00:00 MX 26.7000 -113.500 25 hurdat_epa main 9 O________O____ hurdat_epa EP141970 26.7000 -113.500 TD 25 -1 26.7000 -113.500 25 7 39

About IBTrACS Database

This database is a web-friendly format of International Best Track Archive for Climate Stewardship (IBTrACS), a global best track data archive curated by NOAA dating back to 1842.

Updated: 2021-12-06